sensor_id;sensor_type;location;lat;lon;timestamp;P1;durP1;ratioP1;P2;durP2;ratioP2
74459;SDS011;62902;48.854;9.292;2023-01-20T00:01:37;491.80;;;376.70;;
74459;SDS011;62902;48.854;9.292;2023-01-20T00:04:06;489.35;;;374.05;;
74459;SDS011;62902;48.854;9.292;2023-01-20T00:06:32;490.25;;;375.95;;
74459;SDS011;62902;48.854;9.292;2023-01-20T00:09:00;489.40;;;376.70;;
74459;SDS011;62902;48.854;9.292;2023-01-20T00:11:28;486.92;;;372.70;;
74459;SDS011;62902;48.854;9.292;2023-01-20T00:13:56;489.95;;;375.50;;
74459;SDS011;62902;48.854;9.292;2023-01-20T00:16:23;487.10;;;373.00;;
74459;SDS011;62902;48.854;9.292;2023-01-20T00:18:50;488.33;;;375.75;;
74459;SDS011;62902;48.854;9.292;2023-01-20T00:21:17;487.77;;;371.37;;
74459;SDS011;62902;48.854;9.292;2023-01-20T00:23:45;490.38;;;376.10;;
74459;SDS011;62902;48.854;9.292;2023-01-20T00:26:13;490.83;;;374.48;;
74459;SDS011;62902;48.854;9.292;2023-01-20T00:28:41;490.23;;;371.30;;
74459;SDS011;62902;48.854;9.292;2023-01-20T00:31:11;489.87;;;375.90;;
74459;SDS011;62902;48.854;9.292;2023-01-20T00:33:46;489.25;;;374.27;;
74459;SDS011;62902;48.854;9.292;2023-01-20T00:36:14;490.23;;;374.02;;
74459;SDS011;62902;48.854;9.292;2023-01-20T00:38:42;487.13;;;376.30;;
74459;SDS011;62902;48.854;9.292;2023-01-20T00:41:09;490.30;;;377.27;;
74459;SDS011;62902;48.854;9.292;2023-01-20T00:43:36;492.40;;;381.73;;
74459;SDS011;62902;48.854;9.292;2023-01-20T00:46:03;488.80;;;374.83;;
74459;SDS011;62902;48.854;9.292;2023-01-20T00:48:30;490.40;;;377.88;;
74459;SDS011;62902;48.854;9.292;2023-01-20T00:50:58;493.60;;;378.17;;
74459;SDS011;62902;48.854;9.292;2023-01-20T00:53:25;487.25;;;376.23;;
74459;SDS011;62902;48.854;9.292;2023-01-20T00:55:52;485.23;;;377.27;;
74459;SDS011;62902;48.854;9.292;2023-01-20T00:58:18;479.50;;;368.20;;
74459;SDS011;62902;48.854;9.292;2023-01-20T01:00:45;479.65;;;370.30;;
74459;SDS011;62902;48.854;9.292;2023-01-20T01:03:13;483.83;;;374.83;;
74459;SDS011;62902;48.854;9.292;2023-01-20T01:05:39;487.95;;;378.42;;
74459;SDS011;62902;48.854;9.292;2023-01-20T01:08:06;489.00;;;376.58;;
74459;SDS011;62902;48.854;9.292;2023-01-20T01:10:33;484.73;;;372.00;;
74459;SDS011;62902;48.854;9.292;2023-01-20T01:13:00;486.35;;;373.58;;
74459;SDS011;62902;48.854;9.292;2023-01-20T01:15:28;488.67;;;376.00;;
74459;SDS011;62902;48.854;9.292;2023-01-20T01:17:55;484.80;;;374.02;;
74459;SDS011;62902;48.854;9.292;2023-01-20T01:20:22;482.90;;;369.37;;
74459;SDS011;62902;48.854;9.292;2023-01-20T01:22:49;479.42;;;367.73;;
74459;SDS011;62902;48.854;9.292;2023-01-20T01:25:15;481.43;;;367.93;;
74459;SDS011;62902;48.854;9.292;2023-01-20T01:27:42;486.25;;;372.25;;
74459;SDS011;62902;48.854;9.292;2023-01-20T01:30:09;484.25;;;374.77;;
74459;SDS011;62902;48.854;9.292;2023-01-20T01:32:36;486.20;;;379.80;;
74459;SDS011;62902;48.854;9.292;2023-01-20T01:35:03;479.80;;;375.33;;
74459;SDS011;62902;48.854;9.292;2023-01-20T01:37:29;475.33;;;371.40;;
74459;SDS011;62902;48.854;9.292;2023-01-20T01:39:56;475.45;;;365.33;;
74459;SDS011;62902;48.854;9.292;2023-01-20T01:42:23;478.50;;;369.27;;
74459;SDS011;62902;48.854;9.292;2023-01-20T01:50:21;478.25;;;368.58;;
74459;SDS011;62902;48.854;9.292;2023-01-20T01:52:55;477.33;;;364.70;;
74459;SDS011;62902;48.854;9.292;2023-01-20T01:55:23;482.23;;;371.50;;
74459;SDS011;62902;48.854;9.292;2023-01-20T01:57:53;479.45;;;366.73;;
74459;SDS011;62902;48.854;9.292;2023-01-20T02:00:21;483.63;;;371.83;;
74459;SDS011;62902;48.854;9.292;2023-01-20T02:02:48;484.80;;;369.35;;
74459;SDS011;62902;48.854;9.292;2023-01-20T02:05:15;482.45;;;364.73;;
74459;SDS011;62902;48.854;9.292;2023-01-20T02:07:44;495.67;;;383.38;;
74459;SDS011;62902;48.854;9.292;2023-01-20T02:10:12;495.33;;;383.42;;
74459;SDS011;62902;48.854;9.292;2023-01-20T02:12:40;496.00;;;386.02;;
74459;SDS011;62902;48.854;9.292;2023-01-20T02:15:07;494.83;;;383.02;;
74459;SDS011;62902;48.854;9.292;2023-01-20T02:17:35;494.07;;;381.43;;
74459;SDS011;62902;48.854;9.292;2023-01-20T02:23:00;499.13;;;389.05;;
74459;SDS011;62902;48.854;9.292;2023-01-20T02:25:45;499.25;;;389.60;;
74459;SDS011;62902;48.854;9.292;2023-01-20T02:28:38;497.73;;;385.37;;
74459;SDS011;62902;48.854;9.292;2023-01-20T02:31:19;498.83;;;388.80;;
74459;SDS011;62902;48.854;9.292;2023-01-20T02:36:46;490.33;;;374.92;;
74459;SDS011;62902;48.854;9.292;2023-01-20T02:39:18;489.50;;;373.00;;
74459;SDS011;62902;48.854;9.292;2023-01-20T02:44:52;483.15;;;365.58;;
74459;SDS011;62902;48.854;9.292;2023-01-20T02:47:28;489.88;;;371.88;;
74459;SDS011;62902;48.854;9.292;2023-01-20T02:50:09;490.57;;;374.03;;
74459;SDS011;62902;48.854;9.292;2023-01-20T02:52:48;489.48;;;372.40;;
74459;SDS011;62902;48.854;9.292;2023-01-20T02:55:21;496.23;;;382.25;;
74459;SDS011;62902;48.854;9.292;2023-01-20T02:57:53;498.50;;;390.40;;
74459;SDS011;62902;48.854;9.292;2023-01-20T03:00:26;501.15;;;393.42;;
74459;SDS011;62902;48.854;9.292;2023-01-20T03:02:56;488.45;;;376.17;;
74459;SDS011;62902;48.854;9.292;2023-01-20T03:05:31;487.75;;;375.45;;
74459;SDS011;62902;48.854;9.292;2023-01-20T03:07:59;484.07;;;375.20;;
74459;SDS011;62902;48.854;9.292;2023-01-20T03:10:28;487.38;;;380.88;;
74459;SDS011;62902;48.854;9.292;2023-01-20T03:12:58;488.93;;;385.40;;
74459;SDS011;62902;48.854;9.292;2023-01-20T03:15:34;489.83;;;386.92;;
74459;SDS011;62902;48.854;9.292;2023-01-20T03:18:05;498.45;;;400.00;;
74459;SDS011;62902;48.854;9.292;2023-01-20T03:20:32;499.75;;;399.58;;
74459;SDS011;62902;48.854;9.292;2023-01-20T03:22:58;501.20;;;403.02;;
74459;SDS011;62902;48.854;9.292;2023-01-20T03:25:25;497.85;;;398.33;;
74459;SDS011;62902;48.854;9.292;2023-01-20T03:27:52;501.58;;;399.25;;
74459;SDS011;62902;48.854;9.292;2023-01-20T03:30:18;500.47;;;400.43;;
74459;SDS011;62902;48.854;9.292;2023-01-20T03:32:47;502.85;;;398.40;;
74459;SDS011;62902;48.854;9.292;2023-01-20T03:35:17;502.13;;;397.30;;
74459;SDS011;62902;48.854;9.292;2023-01-20T03:37:44;505.73;;;401.45;;
74459;SDS011;62902;48.854;9.292;2023-01-20T03:40:11;502.23;;;399.40;;
74459;SDS011;62902;48.854;9.292;2023-01-20T03:42:40;505.50;;;401.60;;
74459;SDS011;62902;48.854;9.292;2023-01-20T03:45:16;502.23;;;400.08;;
74459;SDS011;62902;48.854;9.292;2023-01-20T03:55:53;497.48;;;401.67;;
74459;SDS011;62902;48.854;9.292;2023-01-20T03:58:23;496.33;;;402.45;;
74459;SDS011;62902;48.854;9.292;2023-01-20T04:00:54;498.53;;;407.93;;
74459;SDS011;62902;48.854;9.292;2023-01-20T04:03:28;497.85;;;408.85;;
74459;SDS011;62902;48.854;9.292;2023-01-20T04:06:00;496.80;;;403.70;;
74459;SDS011;62902;48.854;9.292;2023-01-20T04:08:34;494.52;;;398.75;;
74459;SDS011;62902;48.854;9.292;2023-01-20T04:11:03;491.90;;;391.40;;
74459;SDS011;62902;48.854;9.292;2023-01-20T04:13:31;486.33;;;378.48;;
74459;SDS011;62902;48.854;9.292;2023-01-20T04:15:58;489.33;;;379.90;;
74459;SDS011;62902;48.854;9.292;2023-01-20T04:18:26;496.50;;;393.33;;
74459;SDS011;62902;48.854;9.292;2023-01-20T04:20:56;496.98;;;389.63;;
74459;SDS011;62902;48.854;9.292;2023-01-20T04:25:57;498.20;;;391.52;;
74459;SDS011;62902;48.854;9.292;2023-01-20T04:28:27;502.83;;;393.45;;
74459;SDS011;62902;48.854;9.292;2023-01-20T04:30:53;500.48;;;392.27;;
74459;SDS011;62902;48.854;9.292;2023-01-20T04:33:20;500.43;;;389.73;;
74459;SDS011;62902;48.854;9.292;2023-01-20T04:35:47;502.02;;;389.42;;
74459;SDS011;62902;48.854;9.292;2023-01-20T04:38:14;501.65;;;390.80;;
74459;SDS011;62902;48.854;9.292;2023-01-20T04:40:40;503.00;;;389.43;;
74459;SDS011;62902;48.854;9.292;2023-01-20T04:43:07;497.92;;;383.77;;
74459;SDS011;62902;48.854;9.292;2023-01-20T04:45:35;502.33;;;386.65;;
74459;SDS011;62902;48.854;9.292;2023-01-20T04:48:05;496.02;;;380.55;;
74459;SDS011;62902;48.854;9.292;2023-01-20T04:50:36;496.13;;;384.73;;
74459;SDS011;62902;48.854;9.292;2023-01-20T04:53:03;490.30;;;384.30;;
74459;SDS011;62902;48.854;9.292;2023-01-20T04:55:31;495.05;;;384.80;;
74459;SDS011;62902;48.854;9.292;2023-01-20T04:57:58;491.88;;;385.48;;
74459;SDS011;62902;48.854;9.292;2023-01-20T05:00:25;491.83;;;387.30;;
74459;SDS011;62902;48.854;9.292;2023-01-20T05:02:51;493.38;;;387.15;;
74459;SDS011;62902;48.854;9.292;2023-01-20T05:05:18;493.02;;;384.63;;
74459;SDS011;62902;48.854;9.292;2023-01-20T05:07:45;493.50;;;385.88;;
74459;SDS011;62902;48.854;9.292;2023-01-20T05:10:11;495.42;;;388.75;;
74459;SDS011;62902;48.854;9.292;2023-01-20T05:12:38;493.03;;;386.50;;
74459;SDS011;62902;48.854;9.292;2023-01-20T05:15:09;492.58;;;387.55;;
74459;SDS011;62902;48.854;9.292;2023-01-20T05:17:48;494.10;;;385.83;;
74459;SDS011;62902;48.854;9.292;2023-01-20T05:20:15;497.48;;;390.60;;
74459;SDS011;62902;48.854;9.292;2023-01-20T05:22:44;495.92;;;386.63;;
74459;SDS011;62902;48.854;9.292;2023-01-20T05:25:11;494.67;;;388.48;;
74459;SDS011;62902;48.854;9.292;2023-01-20T05:27:38;507.15;;;394.00;;
74459;SDS011;62902;48.854;9.292;2023-01-20T05:30:05;503.35;;;389.58;;
74459;SDS011;62902;48.854;9.292;2023-01-20T05:32:39;506.58;;;395.55;;
74459;SDS011;62902;48.854;9.292;2023-01-20T05:35:05;504.83;;;393.53;;
74459;SDS011;62902;48.854;9.292;2023-01-20T05:37:32;503.27;;;395.80;;
74459;SDS011;62902;48.854;9.292;2023-01-20T05:39:59;502.55;;;401.35;;
74459;SDS011;62902;48.854;9.292;2023-01-20T05:42:26;503.85;;;402.08;;
74459;SDS011;62902;48.854;9.292;2023-01-20T05:44:52;502.65;;;403.85;;
74459;SDS011;62902;48.854;9.292;2023-01-20T05:47:19;499.20;;;402.48;;
74459;SDS011;62902;48.854;9.292;2023-01-20T05:49:45;496.40;;;397.20;;
74459;SDS011;62902;48.854;9.292;2023-01-20T05:52:12;497.80;;;398.63;;
74459;SDS011;62902;48.854;9.292;2023-01-20T05:54:39;497.42;;;398.52;;
74459;SDS011;62902;48.854;9.292;2023-01-20T05:57:05;498.25;;;399.08;;
74459;SDS011;62902;48.854;9.292;2023-01-20T05:59:32;498.10;;;401.05;;
74459;SDS011;62902;48.854;9.292;2023-01-20T06:01:59;499.30;;;400.55;;
74459;SDS011;62902;48.854;9.292;2023-01-20T06:04:26;497.48;;;393.88;;
74459;SDS011;62902;48.854;9.292;2023-01-20T06:06:56;497.63;;;403.55;;
74459;SDS011;62902;48.854;9.292;2023-01-20T06:09:23;496.98;;;404.40;;
74459;SDS011;62902;48.854;9.292;2023-01-20T06:11:50;497.42;;;406.58;;
74459;SDS011;62902;48.854;9.292;2023-01-20T06:14:18;497.75;;;406.30;;
74459;SDS011;62902;48.854;9.292;2023-01-20T06:16:44;499.25;;;406.58;;
74459;SDS011;62902;48.854;9.292;2023-01-20T06:19:11;499.05;;;408.63;;
74459;SDS011;62902;48.854;9.292;2023-01-20T06:21:37;500.42;;;407.92;;
74459;SDS011;62902;48.854;9.292;2023-01-20T06:24:04;498.13;;;406.27;;
74459;SDS011;62902;48.854;9.292;2023-01-20T06:26:31;506.15;;;418.60;;
74459;SDS011;62902;48.854;9.292;2023-01-20T06:29:03;502.98;;;413.20;;
74459;SDS011;62902;48.854;9.292;2023-01-20T06:31:30;511.70;;;426.90;;
74459;SDS011;62902;48.854;9.292;2023-01-20T06:33:57;510.40;;;426.65;;
74459;SDS011;62902;48.854;9.292;2023-01-20T06:36:23;513.10;;;428.83;;
74459;SDS011;62902;48.854;9.292;2023-01-20T06:38:50;513.00;;;426.48;;
74459;SDS011;62902;48.854;9.292;2023-01-20T06:41:18;505.00;;;412.17;;
74459;SDS011;62902;48.854;9.292;2023-01-20T06:43:45;503.00;;;410.38;;
74459;SDS011;62902;48.854;9.292;2023-01-20T06:46:13;500.43;;;410.33;;
74459;SDS011;62902;48.854;9.292;2023-01-20T06:48:41;501.95;;;407.67;;
74459;SDS011;62902;48.854;9.292;2023-01-20T06:51:09;502.10;;;413.30;;
74459;SDS011;62902;48.854;9.292;2023-01-20T06:53:40;506.55;;;422.23;;
74459;SDS011;62902;48.854;9.292;2023-01-20T06:56:09;509.15;;;427.35;;
74459;SDS011;62902;48.854;9.292;2023-01-20T06:58:36;511.73;;;430.45;;
74459;SDS011;62902;48.854;9.292;2023-01-20T07:01:05;513.42;;;429.58;;
74459;SDS011;62902;48.854;9.292;2023-01-20T07:03:34;509.80;;;423.35;;
74459;SDS011;62902;48.854;9.292;2023-01-20T07:06:10;509.30;;;426.15;;
74459;SDS011;62902;48.854;9.292;2023-01-20T07:08:41;511.38;;;427.35;;
74459;SDS011;62902;48.854;9.292;2023-01-20T07:11:09;512.97;;;424.13;;
74459;SDS011;62902;48.854;9.292;2023-01-20T07:13:36;514.53;;;421.00;;
74459;SDS011;62902;48.854;9.292;2023-01-20T07:16:02;514.28;;;421.00;;
74459;SDS011;62902;48.854;9.292;2023-01-20T07:18:29;517.80;;;421.85;;
74459;SDS011;62902;48.854;9.292;2023-01-20T07:20:56;517.53;;;419.20;;
74459;SDS011;62902;48.854;9.292;2023-01-20T07:23:23;519.13;;;417.80;;
74459;SDS011;62902;48.854;9.292;2023-01-20T07:26:12;514.40;;;412.75;;
74459;SDS011;62902;48.854;9.292;2023-01-20T07:28:40;514.70;;;410.03;;
74459;SDS011;62902;48.854;9.292;2023-01-20T07:31:08;515.72;;;409.25;;
74459;SDS011;62902;48.854;9.292;2023-01-20T07:33:37;520.20;;;417.73;;
74459;SDS011;62902;48.854;9.292;2023-01-20T07:36:04;520.75;;;417.00;;
74459;SDS011;62902;48.854;9.292;2023-01-20T07:38:32;516.05;;;413.40;;
74459;SDS011;62902;48.854;9.292;2023-01-20T07:40:59;515.08;;;409.60;;
74459;SDS011;62902;48.854;9.292;2023-01-20T07:43:30;518.77;;;412.60;;
74459;SDS011;62902;48.854;9.292;2023-01-20T07:45:57;518.83;;;413.52;;
74459;SDS011;62902;48.854;9.292;2023-01-20T07:48:25;520.40;;;412.65;;
74459;SDS011;62902;48.854;9.292;2023-01-20T07:50:55;519.03;;;411.83;;
74459;SDS011;62902;48.854;9.292;2023-01-20T07:53:42;517.40;;;410.13;;
74459;SDS011;62902;48.854;9.292;2023-01-20T07:56:17;516.07;;;409.60;;
74459;SDS011;62902;48.854;9.292;2023-01-20T07:58:48;516.20;;;412.07;;
74459;SDS011;62902;48.854;9.292;2023-01-20T08:01:26;516.13;;;411.13;;
74459;SDS011;62902;48.854;9.292;2023-01-20T08:03:54;517.53;;;413.40;;
74459;SDS011;62902;48.854;9.292;2023-01-20T08:06:22;514.60;;;404.33;;
74459;SDS011;62902;48.854;9.292;2023-01-20T08:08:52;516.05;;;409.48;;
74459;SDS011;62902;48.854;9.292;2023-01-20T08:11:20;515.42;;;410.52;;
74459;SDS011;62902;48.854;9.292;2023-01-20T08:13:51;515.28;;;408.05;;
74459;SDS011;62902;48.854;9.292;2023-01-20T08:16:18;515.97;;;408.00;;
74459;SDS011;62902;48.854;9.292;2023-01-20T08:18:44;515.53;;;405.30;;
74459;SDS011;62902;48.854;9.292;2023-01-20T08:21:19;517.03;;;407.30;;
74459;SDS011;62902;48.854;9.292;2023-01-20T08:23:48;517.93;;;407.60;;
74459;SDS011;62902;48.854;9.292;2023-01-20T08:26:15;518.35;;;403.08;;
74459;SDS011;62902;48.854;9.292;2023-01-20T08:28:43;519.63;;;403.40;;
74459;SDS011;62902;48.854;9.292;2023-01-20T08:31:14;518.77;;;402.23;;
74459;SDS011;62902;48.854;9.292;2023-01-20T08:33:43;516.85;;;402.90;;
74459;SDS011;62902;48.854;9.292;2023-01-20T08:36:16;515.13;;;403.80;;
74459;SDS011;62902;48.854;9.292;2023-01-20T08:38:45;511.50;;;404.73;;
74459;SDS011;62902;48.854;9.292;2023-01-20T08:41:16;513.45;;;409.58;;
74459;SDS011;62902;48.854;9.292;2023-01-20T08:43:49;511.73;;;405.40;;
74459;SDS011;62902;48.854;9.292;2023-01-20T08:46:17;508.67;;;403.45;;
74459;SDS011;62902;48.854;9.292;2023-01-20T08:48:45;512.25;;;407.48;;
74459;SDS011;62902;48.854;9.292;2023-01-20T08:51:15;513.50;;;410.67;;
74459;SDS011;62902;48.854;9.292;2023-01-20T08:53:46;515.40;;;411.33;;
74459;SDS011;62902;48.854;9.292;2023-01-20T08:56:13;512.28;;;405.20;;
74459;SDS011;62902;48.854;9.292;2023-01-20T08:58:40;510.90;;;404.42;;
74459;SDS011;62902;48.854;9.292;2023-01-20T09:01:07;506.05;;;395.67;;
74459;SDS011;62902;48.854;9.292;2023-01-20T09:03:35;514.28;;;407.60;;
74459;SDS011;62902;48.854;9.292;2023-01-20T09:06:02;512.05;;;407.52;;
74459;SDS011;62902;48.854;9.292;2023-01-20T09:08:29;514.75;;;411.20;;
74459;SDS011;62902;48.854;9.292;2023-01-20T09:11:07;513.67;;;406.97;;
74459;SDS011;62902;48.854;9.292;2023-01-20T09:13:38;512.60;;;398.63;;
74459;SDS011;62902;48.854;9.292;2023-01-20T09:16:05;510.05;;;401.27;;
74459;SDS011;62902;48.854;9.292;2023-01-20T09:18:32;510.90;;;396.73;;
74459;SDS011;62902;48.854;9.292;2023-01-20T09:21:00;507.83;;;396.50;;
74459;SDS011;62902;48.854;9.292;2023-01-20T09:23:28;509.60;;;397.13;;
74459;SDS011;62902;48.854;9.292;2023-01-20T09:25:57;505.27;;;392.83;;
74459;SDS011;62902;48.854;9.292;2023-01-20T09:28:25;505.55;;;396.95;;
74459;SDS011;62902;48.854;9.292;2023-01-20T09:31:00;508.38;;;401.50;;
74459;SDS011;62902;48.854;9.292;2023-01-20T09:33:30;509.27;;;405.60;;
74459;SDS011;62902;48.854;9.292;2023-01-20T09:35:57;507.77;;;404.10;;
74459;SDS011;62902;48.854;9.292;2023-01-20T09:38:25;506.02;;;400.92;;
74459;SDS011;62902;48.854;9.292;2023-01-20T09:47:03;503.35;;;396.95;;
74459;SDS011;62902;48.854;9.292;2023-01-20T09:53:25;507.23;;;398.25;;
74459;SDS011;62902;48.854;9.292;2023-01-20T09:56:01;507.58;;;400.20;;
74459;SDS011;62902;48.854;9.292;2023-01-20T10:01:27;512.08;;;398.15;;
74459;SDS011;62902;48.854;9.292;2023-01-20T10:04:01;508.60;;;387.90;;
74459;SDS011;62902;48.854;9.292;2023-01-20T10:06:39;511.27;;;395.52;;
74459;SDS011;62902;48.854;9.292;2023-01-20T10:11:47;512.47;;;394.33;;
74459;SDS011;62902;48.854;9.292;2023-01-20T10:14:22;513.20;;;392.40;;
74459;SDS011;62902;48.854;9.292;2023-01-20T10:16:57;510.73;;;387.17;;
74459;SDS011;62902;48.854;9.292;2023-01-20T10:22:16;513.38;;;389.17;;
74459;SDS011;62902;48.854;9.292;2023-01-20T10:25:08;514.42;;;387.52;;
74459;SDS011;62902;48.854;9.292;2023-01-20T10:27:52;515.57;;;393.73;;
74459;SDS011;62902;48.854;9.292;2023-01-20T10:30:22;513.25;;;391.92;;
74459;SDS011;62902;48.854;9.292;2023-01-20T10:32:56;511.67;;;390.30;;
74459;SDS011;62902;48.854;9.292;2023-01-20T10:35:29;510.15;;;388.60;;
74459;SDS011;62902;48.854;9.292;2023-01-20T10:38:01;512.00;;;390.67;;
74459;SDS011;62902;48.854;9.292;2023-01-20T10:40:35;512.05;;;394.80;;
74459;SDS011;62902;48.854;9.292;2023-01-20T10:43:12;510.60;;;391.52;;
74459;SDS011;62902;48.854;9.292;2023-01-20T10:45:52;513.05;;;395.85;;
74459;SDS011;62902;48.854;9.292;2023-01-20T10:57:25;514.30;;;399.33;;
74459;SDS011;62902;48.854;9.292;2023-01-20T10:59:53;513.35;;;399.50;;
74459;SDS011;62902;48.854;9.292;2023-01-20T11:02:25;513.97;;;399.52;;
74459;SDS011;62902;48.854;9.292;2023-01-20T11:04:58;509.92;;;399.00;;
74459;SDS011;62902;48.854;9.292;2023-01-20T11:07:26;515.63;;;405.43;;
74459;SDS011;62902;48.854;9.292;2023-01-20T11:09:53;507.15;;;401.10;;
74459;SDS011;62902;48.854;9.292;2023-01-20T11:12:21;509.80;;;401.02;;
74459;SDS011;62902;48.854;9.292;2023-01-20T11:14:52;509.80;;;397.50;;
74459;SDS011;62902;48.854;9.292;2023-01-20T11:17:40;510.25;;;396.98;;
74459;SDS011;62902;48.854;9.292;2023-01-20T11:20:19;508.88;;;398.55;;
74459;SDS011;62902;48.854;9.292;2023-01-20T11:23:46;511.48;;;400.92;;
74459;SDS011;62902;48.854;9.292;2023-01-20T11:26:30;511.50;;;399.35;;
74459;SDS011;62902;48.854;9.292;2023-01-20T11:31:41;511.90;;;401.70;;
74459;SDS011;62902;48.854;9.292;2023-01-20T11:42:16;518.27;;;402.37;;
74459;SDS011;62902;48.854;9.292;2023-01-20T11:44:54;516.15;;;395.30;;
74459;SDS011;62902;48.854;9.292;2023-01-20T11:52:34;515.63;;;395.55;;
74459;SDS011;62902;48.854;9.292;2023-01-20T11:55:13;515.47;;;394.35;;
74459;SDS011;62902;48.854;9.292;2023-01-20T11:57:51;519.78;;;402.95;;
74459;SDS011;62902;48.854;9.292;2023-01-20T12:05:55;516.30;;;402.88;;
74459;SDS011;62902;48.854;9.292;2023-01-20T12:08:26;516.47;;;405.13;;
74459;SDS011;62902;48.854;9.292;2023-01-20T12:11:05;513.53;;;392.53;;
74459;SDS011;62902;48.854;9.292;2023-01-20T12:13:44;518.92;;;395.75;;
74459;SDS011;62902;48.854;9.292;2023-01-20T12:18:11;525.33;;;391.33;;
74459;SDS011;62902;48.854;9.292;2023-01-20T12:24:57;532.28;;;395.90;;
74459;SDS011;62902;48.854;9.292;2023-01-20T12:31:55;531.35;;;404.77;;
74459;SDS011;62902;48.854;9.292;2023-01-20T12:35:30;526.65;;;407.13;;
74459;SDS011;62902;48.854;9.292;2023-01-20T12:45:25;535.72;;;416.10;;
74459;SDS011;62902;48.854;9.292;2023-01-20T13:00:31;517.95;;;404.00;;
74459;SDS011;62902;48.854;9.292;2023-01-20T13:04:39;518.27;;;404.27;;
74459;SDS011;62902;48.854;9.292;2023-01-20T13:08:49;520.20;;;401.83;;
74459;SDS011;62902;48.854;9.292;2023-01-20T13:25:58;524.00;;;409.67;;
74459;SDS011;62902;48.854;9.292;2023-01-20T13:51:44;520.28;;;408.23;;
74459;SDS011;62902;48.854;9.292;2023-01-20T13:55:01;522.75;;;411.73;;
74459;SDS011;62902;48.854;9.292;2023-01-20T14:01:45;516.00;;;402.30;;
74459;SDS011;62902;48.854;9.292;2023-01-20T14:18:51;524.47;;;409.60;;
74459;SDS011;62902;48.854;9.292;2023-01-20T14:24:53;527.10;;;407.13;;
74459;SDS011;62902;48.854;9.292;2023-01-20T14:27:26;524.28;;;404.42;;
74459;SDS011;62902;48.854;9.292;2023-01-20T14:29:57;527.00;;;405.90;;
74459;SDS011;62902;48.854;9.292;2023-01-20T14:36:45;524.05;;;404.25;;
74459;SDS011;62902;48.854;9.292;2023-01-20T14:40:39;522.17;;;401.98;;
74459;SDS011;62902;48.854;9.292;2023-01-20T14:53:02;524.07;;;398.13;;
74459;SDS011;62902;48.854;9.292;2023-01-20T14:57:22;523.37;;;398.80;;
74459;SDS011;62902;48.854;9.292;2023-01-20T15:00:46;529.55;;;409.50;;
74459;SDS011;62902;48.854;9.292;2023-01-20T15:04:45;528.38;;;397.15;;
74459;SDS011;62902;48.854;9.292;2023-01-20T15:09:24;529.85;;;402.63;;
74459;SDS011;62902;48.854;9.292;2023-01-20T15:21:49;533.03;;;403.30;;
74459;SDS011;62902;48.854;9.292;2023-01-20T15:37:54;531.00;;;407.70;;
74459;SDS011;62902;48.854;9.292;2023-01-20T15:40:22;527.03;;;399.37;;
74459;SDS011;62902;48.854;9.292;2023-01-20T15:42:49;527.47;;;403.33;;
74459;SDS011;62902;48.854;9.292;2023-01-20T15:45:17;528.85;;;405.05;;
74459;SDS011;62902;48.854;9.292;2023-01-20T15:47:46;528.60;;;404.48;;
74459;SDS011;62902;48.854;9.292;2023-01-20T15:50:17;528.50;;;408.95;;
74459;SDS011;62902;48.854;9.292;2023-01-20T15:52:50;525.97;;;402.60;;
74459;SDS011;62902;48.854;9.292;2023-01-20T15:55:17;525.45;;;405.92;;
74459;SDS011;62902;48.854;9.292;2023-01-20T15:57:45;527.72;;;407.05;;
74459;SDS011;62902;48.854;9.292;2023-01-20T16:00:16;526.43;;;404.73;;
74459;SDS011;62902;48.854;9.292;2023-01-20T16:02:44;526.45;;;407.67;;
74459;SDS011;62902;48.854;9.292;2023-01-20T16:05:11;523.25;;;403.88;;
74459;SDS011;62902;48.854;9.292;2023-01-20T16:07:42;527.00;;;409.13;;
74459;SDS011;62902;48.854;9.292;2023-01-20T16:10:14;526.00;;;406.83;;
74459;SDS011;62902;48.854;9.292;2023-01-20T16:12:42;527.53;;;409.63;;
74459;SDS011;62902;48.854;9.292;2023-01-20T16:15:16;526.72;;;409.73;;
74459;SDS011;62902;48.854;9.292;2023-01-20T16:17:43;528.63;;;408.83;;
74459;SDS011;62902;48.854;9.292;2023-01-20T16:20:15;527.13;;;410.33;;
74459;SDS011;62902;48.854;9.292;2023-01-20T16:22:44;529.40;;;411.37;;
74459;SDS011;62902;48.854;9.292;2023-01-20T16:25:11;527.55;;;409.77;;
74459;SDS011;62902;48.854;9.292;2023-01-20T16:27:37;527.75;;;411.77;;
74459;SDS011;62902;48.854;9.292;2023-01-20T16:30:04;526.17;;;408.05;;
74459;SDS011;62902;48.854;9.292;2023-01-20T16:32:31;527.03;;;411.85;;
74459;SDS011;62902;48.854;9.292;2023-01-20T16:34:58;526.87;;;413.83;;
74459;SDS011;62902;48.854;9.292;2023-01-20T16:37:25;524.42;;;409.48;;
74459;SDS011;62902;48.854;9.292;2023-01-20T16:39:52;527.10;;;413.53;;
74459;SDS011;62902;48.854;9.292;2023-01-20T16:42:18;522.67;;;411.08;;
74459;SDS011;62902;48.854;9.292;2023-01-20T16:44:45;522.57;;;409.70;;
74459;SDS011;62902;48.854;9.292;2023-01-20T16:47:11;522.55;;;411.60;;
74459;SDS011;62902;48.854;9.292;2023-01-20T16:49:38;516.43;;;408.40;;
74459;SDS011;62902;48.854;9.292;2023-01-20T16:52:04;516.83;;;411.02;;
74459;SDS011;62902;48.854;9.292;2023-01-20T16:54:31;516.75;;;413.98;;
74459;SDS011;62902;48.854;9.292;2023-01-20T16:56:58;516.90;;;413.38;;
74459;SDS011;62902;48.854;9.292;2023-01-20T16:59:25;514.67;;;406.55;;
74459;SDS011;62902;48.854;9.292;2023-01-20T17:01:51;514.95;;;407.52;;
74459;SDS011;62902;48.854;9.292;2023-01-20T17:04:18;515.28;;;409.77;;
74459;SDS011;62902;48.854;9.292;2023-01-20T17:06:44;516.97;;;412.17;;
74459;SDS011;62902;48.854;9.292;2023-01-20T17:09:11;515.30;;;411.48;;
74459;SDS011;62902;48.854;9.292;2023-01-20T17:11:39;517.17;;;410.93;;
74459;SDS011;62902;48.854;9.292;2023-01-20T17:14:07;518.50;;;414.20;;
74459;SDS011;62902;48.854;9.292;2023-01-20T17:16:34;516.58;;;412.60;;
74459;SDS011;62902;48.854;9.292;2023-01-20T17:19:01;516.65;;;413.20;;
74459;SDS011;62902;48.854;9.292;2023-01-20T17:21:29;514.55;;;408.88;;
74459;SDS011;62902;48.854;9.292;2023-01-20T17:23:58;512.85;;;408.00;;
74459;SDS011;62902;48.854;9.292;2023-01-20T17:26:26;514.50;;;409.23;;
74459;SDS011;62902;48.854;9.292;2023-01-20T17:28:54;515.77;;;409.67;;
74459;SDS011;62902;48.854;9.292;2023-01-20T17:31:27;515.42;;;412.35;;
74459;SDS011;62902;48.854;9.292;2023-01-20T17:33:54;513.97;;;411.17;;
74459;SDS011;62902;48.854;9.292;2023-01-20T17:36:21;513.92;;;410.35;;
74459;SDS011;62902;48.854;9.292;2023-01-20T17:38:48;515.57;;;411.93;;
74459;SDS011;62902;48.854;9.292;2023-01-20T17:41:14;514.95;;;412.25;;
74459;SDS011;62902;48.854;9.292;2023-01-20T17:43:42;515.38;;;411.83;;
74459;SDS011;62902;48.854;9.292;2023-01-20T17:46:15;515.17;;;410.15;;